createdAt,value
2022-10-20T00:01:21.067Z,15.07
2022-10-20T00:03:50.329Z,14.89
2022-10-20T00:06:21.188Z,14.86
2022-10-20T00:08:49.343Z,14.92
2022-10-20T00:11:22.116Z,15.10
2022-10-20T00:13:54.133Z,15.13
2022-10-20T00:16:24.121Z,15.16
2022-10-20T00:18:52.415Z,15.25
2022-10-20T00:21:23.260Z,15.31
2022-10-20T00:23:51.694Z,15.30
2022-10-20T00:26:25.186Z,15.18
2022-10-20T00:28:56.026Z,15.10
2022-10-20T00:31:25.495Z,14.90
2022-10-20T00:33:54.172Z,14.66
2022-10-20T00:36:24.219Z,14.80
2022-10-20T00:38:52.786Z,14.67
2022-10-20T00:41:22.713Z,14.76
2022-10-20T00:43:55.464Z,14.82
2022-10-20T00:46:26.441Z,14.81
2022-10-20T00:48:58.149Z,14.65
2022-10-20T00:51:30.332Z,14.59
2022-10-20T00:54:07.743Z,14.66
2022-10-20T00:56:38.524Z,14.78
2022-10-20T00:59:08.636Z,14.87
2022-10-20T01:01:38.469Z,14.86
2022-10-20T01:04:06.855Z,14.77
2022-10-20T01:06:35.426Z,14.76
2022-10-20T01:09:06.283Z,14.82
2022-10-20T01:11:43.856Z,14.85
2022-10-20T01:14:27.158Z,14.83
2022-10-20T01:17:06.333Z,14.90
2022-10-20T01:20:19.643Z,14.93
2022-10-20T01:23:44.316Z,14.90
2022-10-20T01:27:03.401Z,14.91
2022-10-20T01:29:38.602Z,14.98
2022-10-20T01:32:16.590Z,15.03
2022-10-20T01:34:55.377Z,15.02
2022-10-20T01:37:34.414Z,15.01
2022-10-20T01:40:22.960Z,15.00
2022-10-20T01:42:53.414Z,14.95
2022-10-20T01:45:26.589Z,14.99
2022-10-20T01:47:55.847Z,14.90
2022-10-20T01:50:24.703Z,14.87
2022-10-20T01:52:57.577Z,14.86
2022-10-20T01:55:25.903Z,14.82
2022-10-20T01:58:19.398Z,14.67
2022-10-20T02:00:52.256Z,14.61
2022-10-20T02:03:36.796Z,14.56
2022-10-20T02:06:19.624Z,14.65
2022-10-20T02:08:51.910Z,14.69
2022-10-20T02:11:28.273Z,14.58
2022-10-20T02:13:58.551Z,14.38
2022-10-20T02:16:33.484Z,14.41
2022-10-20T02:19:02.888Z,14.53
2022-10-20T02:21:30.943Z,14.59
2022-10-20T02:24:05.503Z,14.55
2022-10-20T02:26:35.093Z,14.62
2022-10-20T02:29:12.139Z,14.50
2022-10-20T02:31:42.242Z,14.52
2022-10-20T02:34:11.421Z,14.58
2022-10-20T02:36:42.551Z,14.62
2022-10-20T02:39:11.944Z,14.58
2022-10-20T02:41:40.042Z,14.60
2022-10-20T02:44:08.244Z,14.49
2022-10-20T02:46:37.145Z,14.36
2022-10-20T02:49:06.621Z,14.43
2022-10-20T02:51:34.715Z,14.40
2022-10-20T02:54:02.877Z,14.44
2022-10-20T02:56:31.271Z,14.46
2022-10-20T02:58:59.628Z,14.45
2022-10-20T03:01:27.747Z,14.43
2022-10-20T03:03:59.512Z,14.43
2022-10-20T03:06:29.009Z,14.47
2022-10-20T03:08:57.178Z,14.48
2022-10-20T03:11:25.529Z,14.46
2022-10-20T03:13:53.642Z,14.45
2022-10-20T03:16:21.743Z,14.46
2022-10-20T03:18:49.946Z,14.50
2022-10-20T03:21:18.310Z,14.55
2022-10-20T03:23:48.270Z,14.56
2022-10-20T03:26:16.342Z,14.56
2022-10-20T03:28:44.536Z,14.56
2022-10-20T03:31:12.701Z,14.55
2022-10-20T03:33:40.754Z,14.58
2022-10-20T03:36:09.468Z,14.56
2022-10-20T03:38:37.564Z,14.58
2022-10-20T03:41:07.173Z,14.55
2022-10-20T03:43:35.301Z,14.56
2022-10-20T03:46:06.455Z,14.56
2022-10-20T03:48:34.936Z,14.57
2022-10-20T03:51:03.453Z,14.62
2022-10-20T03:53:32.139Z,14.55
2022-10-20T03:56:00.947Z,14.59
2022-10-20T03:58:30.401Z,14.66
2022-10-20T04:00:59.192Z,14.64
2022-10-20T04:03:27.300Z,14.63
2022-10-20T04:05:55.379Z,14.68
2022-10-20T04:08:23.476Z,14.70
2022-10-20T04:10:51.561Z,14.74
2022-10-20T04:13:19.654Z,14.74
2022-10-20T04:15:49.157Z,14.81
2022-10-20T04:18:17.225Z,14.80
2022-10-20T04:20:45.294Z,14.94
2022-10-20T04:23:13.492Z,15.03
2022-10-20T04:25:45.546Z,14.99
2022-10-20T04:28:13.936Z,14.97
2022-10-20T04:30:42.551Z,15.00
2022-10-20T04:33:12.861Z,14.97
2022-10-20T04:35:41.338Z,14.93
2022-10-20T04:38:09.734Z,15.02
2022-10-20T04:40:37.835Z,15.07
2022-10-20T04:43:05.911Z,15.02
2022-10-20T04:45:34.013Z,14.97
2022-10-20T04:48:02.303Z,14.94
2022-10-20T04:50:31.718Z,15.02
2022-10-20T04:53:08.035Z,14.98
2022-10-20T04:55:36.994Z,14.94
2022-10-20T04:58:05.108Z,15.01
2022-10-20T05:00:33.191Z,15.07
2022-10-20T05:03:01.487Z,15.04
2022-10-20T05:05:31.096Z,15.13
2022-10-20T05:07:59.116Z,15.14
2022-10-20T05:10:27.139Z,15.23
2022-10-20T05:12:55.180Z,15.29
2022-10-20T05:15:23.230Z,15.16
2022-10-20T05:17:51.315Z,15.23
2022-10-20T05:20:19.472Z,15.19
2022-10-20T05:22:48.955Z,15.15
2022-10-20T05:25:36.520Z,15.16
2022-10-20T05:28:05.612Z,15.04
2022-10-20T05:30:35.779Z,15.06
2022-10-20T05:33:04.222Z,15.06
2022-10-20T05:35:33.035Z,15.11
2022-10-20T05:38:02.505Z,15.13
2022-10-20T05:40:30.632Z,15.12
2022-10-20T05:42:58.757Z,15.15
2022-10-20T05:45:26.858Z,15.15
2022-10-20T05:47:54.887Z,15.19
2022-10-20T05:50:23.237Z,15.29
2022-10-20T05:52:51.364Z,15.26
2022-10-20T05:55:20.929Z,15.25
2022-10-20T05:57:50.823Z,15.26
2022-10-20T06:00:29.650Z,15.29
2022-10-20T06:02:58.370Z,15.30
2022-10-20T06:05:26.452Z,15.31
2022-10-20T06:07:55.292Z,15.34
2022-10-20T06:10:24.785Z,15.33
2022-10-20T06:12:52.906Z,15.30
2022-10-20T06:15:21.006Z,15.30
2022-10-20T06:17:49.142Z,15.33
2022-10-20T06:20:17.369Z,15.35
2022-10-20T06:22:46.228Z,15.39
2022-10-20T06:25:14.324Z,15.39
2022-10-20T06:27:44.496Z,15.39
2022-10-20T06:30:13.201Z,15.44
2022-10-20T06:32:41.265Z,15.46
2022-10-20T06:35:09.726Z,15.47
2022-10-20T06:37:37.820Z,15.45
2022-10-20T06:40:07.426Z,15.45
2022-10-20T06:42:35.811Z,15.45
2022-10-20T06:45:10.143Z,15.44
2022-10-20T06:47:39.696Z,15.46
2022-10-20T06:50:09.858Z,15.47
2022-10-20T06:52:38.342Z,15.52
2022-10-20T06:55:11.390Z,15.51
2022-10-20T06:57:39.471Z,15.52
2022-10-20T07:00:10.870Z,15.57
2022-10-20T07:02:40.334Z,15.57
2022-10-20T07:05:09.212Z,15.63
2022-10-20T07:07:37.356Z,15.64
2022-10-20T07:10:05.916Z,15.76
2022-10-20T07:12:34.270Z,15.79
2022-10-20T07:15:02.614Z,15.87
2022-10-20T07:17:32.019Z,15.86
2022-10-20T07:20:00.144Z,15.86
2022-10-20T07:22:28.279Z,15.94
2022-10-20T07:24:56.314Z,16.03
2022-10-20T07:27:24.379Z,16.00
2022-10-20T07:29:52.517Z,16.04
2022-10-20T07:32:20.617Z,16.05
2022-10-20T07:34:50.099Z,16.15
2022-10-20T07:37:18.171Z,16.22
2022-10-20T07:39:46.312Z,16.23
2022-10-20T07:42:14.410Z,16.25
2022-10-20T07:44:42.583Z,16.30
2022-10-20T07:47:10.678Z,16.35
2022-10-20T07:49:45.903Z,16.42
2022-10-20T07:52:16.605Z,16.39
2022-10-20T07:54:46.035Z,16.43
2022-10-20T07:57:14.178Z,16.49
2022-10-20T07:59:42.429Z,16.57
2022-10-20T08:02:13.600Z,16.63
2022-10-20T08:04:44.010Z,16.68
2022-10-20T08:07:12.190Z,16.73
2022-10-20T08:09:41.717Z,16.81
2022-10-20T08:12:09.948Z,16.90
2022-10-20T08:14:38.025Z,16.97
2022-10-20T08:17:06.470Z,17.06
2022-10-20T08:22:19.128Z,17.20
2022-10-20T08:24:49.044Z,17.29
2022-10-20T08:27:17.209Z,17.34
2022-10-20T08:29:50.960Z,17.42
2022-10-20T08:32:33.966Z,17.47
2022-10-20T08:35:02.108Z,17.57
2022-10-20T08:37:31.207Z,17.62
2022-10-20T08:40:00.682Z,17.66
2022-10-20T08:42:29.135Z,17.55
2022-10-20T08:45:01.245Z,17.70
2022-10-20T08:47:35.746Z,17.80
2022-10-20T08:50:09.756Z,17.93
2022-10-20T08:52:40.089Z,18.03
2022-10-20T08:55:22.896Z,18.08
2022-10-20T08:57:51.120Z,18.11
2022-10-20T09:00:22.816Z,18.22
2022-10-20T09:02:52.280Z,18.26
2022-10-20T09:05:25.078Z,18.30
2022-10-20T09:07:54.732Z,18.35
2022-10-20T09:10:34.231Z,18.46
2022-10-20T09:13:03.992Z,18.47
2022-10-20T09:15:32.401Z,18.51
2022-10-20T09:18:04.100Z,18.53
2022-10-20T09:20:35.810Z,18.59
2022-10-20T09:23:07.958Z,18.63
2022-10-20T09:25:46.765Z,18.73
2022-10-20T09:28:24.424Z,18.80
2022-10-20T09:30:52.654Z,18.86
2022-10-20T09:33:30.314Z,18.89
2022-10-20T09:36:06.099Z,18.91
2022-10-20T09:38:36.535Z,18.89
2022-10-20T09:41:14.512Z,18.88
2022-10-20T09:43:54.465Z,18.87
2022-10-20T09:46:29.252Z,18.85
2022-10-20T09:48:58.850Z,18.82
2022-10-20T09:51:29.708Z,18.82
2022-10-20T09:54:02.635Z,18.83
2022-10-20T09:56:35.776Z,18.81
2022-10-20T09:59:09.014Z,18.81
2022-10-20T10:01:55.826Z,18.78
2022-10-20T10:04:35.378Z,18.83
2022-10-20T10:07:04.768Z,18.85
2022-10-20T10:09:36.065Z,18.97
2022-10-20T10:12:17.536Z,18.94
2022-10-20T10:14:54.299Z,18.93
2022-10-20T10:17:31.608Z,18.93
2022-10-20T10:20:00.162Z,18.91
2022-10-20T10:22:28.701Z,18.91
2022-10-20T10:24:57.775Z,18.90
2022-10-20T10:27:30.217Z,18.94
2022-10-20T10:30:28.352Z,18.96
2022-10-20T10:32:57.402Z,18.97
2022-10-20T10:35:29.942Z,19.05
2022-10-20T10:38:00.932Z,19.06
2022-10-20T10:40:36.056Z,19.06
2022-10-20T10:43:32.136Z,19.06
2022-10-20T10:46:07.220Z,19.08
2022-10-20T10:48:55.280Z,19.13
2022-10-20T10:51:35.918Z,19.12
2022-10-20T10:54:29.968Z,19.12
2022-10-20T10:57:06.036Z,19.16
2022-10-20T10:59:42.682Z,19.14
2022-10-20T11:03:00.011Z,19.14
2022-10-20T11:05:52.624Z,19.21
2022-10-20T11:08:36.387Z,19.13
2022-10-20T11:11:19.797Z,19.14
2022-10-20T11:14:00.633Z,19.16
2022-10-20T11:16:39.765Z,19.19
2022-10-20T11:19:44.461Z,19.21
2022-10-20T11:22:27.667Z,19.18
2022-10-20T11:25:08.503Z,19.26
2022-10-20T11:27:39.379Z,19.32
2022-10-20T11:30:18.394Z,19.33
2022-10-20T11:32:55.611Z,19.30
2022-10-20T11:35:35.083Z,19.35
2022-10-20T11:38:16.065Z,19.35
2022-10-20T11:40:50.788Z,19.35
2022-10-20T11:43:24.584Z,19.31
2022-10-20T11:45:56.836Z,19.35
2022-10-20T11:48:31.550Z,19.37
2022-10-20T11:51:33.341Z,19.40
2022-10-20T11:54:33.351Z,19.40
2022-10-20T11:57:25.118Z,19.41
2022-10-20T12:00:37.833Z,19.41
2022-10-20T12:03:48.802Z,19.40
2022-10-20T12:06:58.106Z,19.43
2022-10-20T12:09:57.029Z,19.44
2022-10-20T12:12:33.952Z,19.46
2022-10-20T12:15:19.873Z,19.47
2022-10-20T12:17:49.018Z,19.48
2022-10-20T12:21:02.278Z,19.46
2022-10-20T12:24:05.146Z,19.47
2022-10-20T12:27:11.859Z,19.51
2022-10-20T12:30:38.423Z,19.51
2022-10-20T12:33:36.005Z,19.50
2022-10-20T12:36:33.820Z,19.48
2022-10-20T12:39:17.453Z,19.50
2022-10-20T12:41:59.701Z,19.50
2022-10-20T12:44:32.539Z,19.50
2022-10-20T12:47:07.405Z,19.48
2022-10-20T12:49:40.062Z,19.46
2022-10-20T12:52:18.878Z,19.43
2022-10-20T12:54:48.690Z,19.41
2022-10-20T12:57:32.144Z,19.40
2022-10-20T13:00:00.265Z,19.40
2022-10-20T13:02:51.209Z,19.38
2022-10-20T13:05:48.201Z,19.33
2022-10-20T13:08:33.694Z,19.33
2022-10-20T13:11:44.563Z,19.32
2022-10-20T13:14:56.224Z,19.41
2022-10-20T13:17:32.314Z,19.38
2022-10-20T13:20:08.285Z,19.39
2022-10-20T13:22:46.793Z,19.35
2022-10-20T13:25:30.467Z,19.35
2022-10-20T13:28:19.110Z,19.39
2022-10-20T13:31:15.473Z,19.42
2022-10-20T13:34:04.252Z,19.35
2022-10-20T13:37:05.758Z,19.39
2022-10-20T13:39:47.020Z,19.46
2022-10-20T13:42:32.493Z,19.45
2022-10-20T13:45:12.444Z,19.47
2022-10-20T13:47:49.634Z,19.40
2022-10-20T13:50:22.585Z,19.39
2022-10-20T13:52:55.220Z,19.39
2022-10-20T13:55:27.376Z,19.39
2022-10-20T13:57:58.447Z,19.42
2022-10-20T14:00:28.920Z,19.40
2022-10-20T14:03:00.778Z,19.43
2022-10-20T14:05:31.671Z,19.37
2022-10-20T14:08:06.137Z,19.37
2022-10-20T14:10:44.686Z,19.36
2022-10-20T14:13:18.746Z,19.35
2022-10-20T14:15:51.312Z,19.32
2022-10-20T14:18:26.393Z,19.31
2022-10-20T14:21:02.697Z,19.31
2022-10-20T14:23:36.536Z,19.28
2022-10-20T14:26:11.914Z,19.28
2022-10-20T14:28:42.185Z,19.28
2022-10-20T14:31:13.520Z,19.31
2022-10-20T14:33:45.415Z,19.26
2022-10-20T14:36:22.997Z,19.26
2022-10-20T14:38:54.283Z,19.21
2022-10-20T14:41:29.453Z,19.21
2022-10-20T14:44:05.160Z,19.22
2022-10-20T14:46:38.950Z,19.14
2022-10-20T14:49:15.520Z,19.13
2022-10-20T14:51:48.175Z,19.09
2022-10-20T14:54:37.017Z,19.09
2022-10-20T14:57:39.899Z,19.07
2022-10-20T15:00:34.546Z,19.00
2022-10-20T15:03:07.654Z,19.03
2022-10-20T15:05:41.413Z,19.04
2022-10-20T15:08:26.003Z,19.00
2022-10-20T15:10:54.972Z,19.05
2022-10-20T15:13:28.460Z,19.08
2022-10-20T15:15:58.233Z,19.04
2022-10-20T15:18:27.508Z,18.99
2022-10-20T15:20:56.622Z,18.93
2022-10-20T15:23:51.474Z,18.93
2022-10-20T15:26:19.680Z,18.92
2022-10-20T15:28:50.655Z,18.92
2022-10-20T15:31:23.638Z,18.93
2022-10-20T15:33:52.722Z,18.91
2022-10-20T15:36:26.403Z,18.94
2022-10-20T15:38:54.671Z,18.89
2022-10-20T15:41:26.080Z,18.90
2022-10-20T15:43:55.868Z,18.86
2022-10-20T15:46:24.212Z,18.86
2022-10-20T15:48:52.391Z,18.82
2022-10-20T15:51:24.481Z,18.81
2022-10-20T15:53:52.635Z,18.85
2022-10-20T15:56:21.483Z,18.83
2022-10-20T15:58:50.890Z,18.85
2022-10-20T16:01:22.227Z,18.87
2022-10-20T16:03:50.864Z,18.89
2022-10-20T16:06:20.466Z,18.85
2022-10-20T16:08:51.187Z,18.84
2022-10-20T16:11:21.311Z,18.87
2022-10-20T16:13:49.895Z,18.81
2022-10-20T16:16:22.215Z,18.82
2022-10-20T16:18:50.305Z,18.83
2022-10-20T16:21:18.679Z,18.85
2022-10-20T16:23:47.410Z,18.77
2022-10-20T16:26:16.247Z,18.80
2022-10-20T16:28:45.137Z,18.81
2022-10-20T16:31:15.992Z,18.69
2022-10-20T16:33:45.904Z,18.66
2022-10-20T16:36:17.788Z,18.68
2022-10-20T16:38:46.214Z,18.68
2022-10-20T16:41:16.552Z,18.72
2022-10-20T16:43:47.133Z,18.71
2022-10-20T16:46:16.241Z,18.76
2022-10-20T16:48:47.962Z,18.79
2022-10-20T16:51:18.186Z,18.76
2022-10-20T16:53:46.514Z,18.77
2022-10-20T16:56:18.178Z,18.78
2022-10-20T16:58:49.936Z,18.74
2022-10-20T17:01:21.721Z,18.71
2022-10-20T17:03:53.917Z,18.68
2022-10-20T17:06:25.245Z,18.67
2022-10-20T17:08:53.912Z,18.65
2022-10-20T17:11:26.324Z,18.70
2022-10-20T17:13:55.192Z,18.68
2022-10-20T17:16:28.601Z,18.68
2022-10-20T17:19:01.333Z,18.68
2022-10-20T17:21:31.198Z,18.69
2022-10-20T17:23:59.500Z,18.68
2022-10-20T17:26:31.279Z,18.64
2022-10-20T17:29:01.704Z,18.61
2022-10-20T17:31:30.340Z,18.61
2022-10-20T17:34:01.143Z,18.63
2022-10-20T17:36:31.004Z,18.63
2022-10-20T17:39:02.212Z,18.64
2022-10-20T17:41:31.216Z,18.64
2022-10-20T17:44:00.996Z,18.69
2022-10-20T17:46:29.578Z,18.64
2022-10-20T17:48:59.155Z,18.67
2022-10-20T17:51:31.801Z,18.62
2022-10-20T17:54:03.171Z,18.59
2022-10-20T17:56:35.316Z,18.58
2022-10-20T17:59:06.496Z,18.55
2022-10-20T18:01:37.086Z,18.49
2022-10-20T18:04:10.303Z,18.49
2022-10-20T18:06:39.248Z,18.49
2022-10-20T18:09:10.921Z,18.50
2022-10-20T18:11:41.220Z,18.42
2022-10-20T18:14:09.290Z,18.42
2022-10-20T18:16:39.735Z,18.41
2022-10-20T18:19:13.846Z,18.38
2022-10-20T18:21:42.531Z,18.36
2022-10-20T18:24:15.088Z,18.40
2022-10-20T18:26:44.839Z,18.47
2022-10-20T18:29:15.174Z,18.44
2022-10-20T18:31:45.433Z,18.48
2022-10-20T18:34:20.432Z,18.46
2022-10-20T18:36:49.441Z,18.36
2022-10-20T18:39:18.131Z,18.31
2022-10-20T18:41:46.435Z,18.29
2022-10-20T18:44:16.950Z,18.28
2022-10-20T18:46:46.278Z,18.30
2022-10-20T18:49:19.621Z,18.37
2022-10-20T18:51:48.647Z,18.29
2022-10-20T18:54:18.350Z,18.30
2022-10-20T18:56:46.534Z,18.34
2022-10-20T18:59:17.159Z,18.28
2022-10-20T19:01:45.814Z,18.30
2022-10-20T19:04:16.087Z,18.33
2022-10-20T19:06:46.546Z,18.27
2022-10-20T19:09:17.337Z,18.28
2022-10-20T19:11:47.279Z,18.20
2022-10-20T19:14:17.986Z,18.23
2022-10-20T19:16:47.715Z,18.27
2022-10-20T19:19:17.687Z,18.22
2022-10-20T19:21:46.400Z,18.23
2022-10-20T19:24:17.371Z,18.24
2022-10-20T19:26:57.181Z,18.21
2022-10-20T19:29:31.289Z,18.24
2022-10-20T19:32:02.412Z,18.24
2022-10-20T19:34:34.771Z,18.14
2022-10-20T19:37:03.628Z,18.15
2022-10-20T19:39:34.692Z,18.19
2022-10-20T19:42:05.126Z,18.13
2022-10-20T19:44:34.368Z,18.16
2022-10-20T19:47:02.878Z,18.24
2022-10-20T19:49:32.427Z,18.24
2022-10-20T19:52:00.730Z,18.18
2022-10-20T19:54:29.034Z,18.18
2022-10-20T19:56:57.201Z,18.18
2022-10-20T19:59:25.372Z,18.21
2022-10-20T20:01:53.504Z,18.19
2022-10-20T20:04:22.043Z,18.21
2022-10-20T20:06:51.601Z,18.24
2022-10-20T20:09:19.671Z,18.29
2022-10-20T20:11:47.925Z,18.21
2022-10-20T20:14:18.312Z,18.15
2022-10-20T20:16:47.575Z,18.23
2022-10-20T20:19:17.134Z,18.14
2022-10-20T20:21:46.170Z,18.13
2022-10-20T20:24:15.932Z,18.13
2022-10-20T20:26:44.824Z,18.13
2022-10-20T20:29:13.239Z,18.09
2022-10-20T20:31:41.570Z,18.08
2022-10-20T20:34:09.682Z,18.09
2022-10-20T20:36:39.337Z,18.04
2022-10-20T20:39:08.117Z,18.10
2022-10-20T20:41:37.703Z,18.12
2022-10-20T20:44:08.462Z,18.11
2022-10-20T20:46:37.449Z,18.11
2022-10-20T20:49:06.006Z,18.15
2022-10-20T20:51:34.406Z,18.16
2022-10-20T20:54:03.783Z,18.17
2022-10-20T20:56:33.579Z,18.17
2022-10-20T20:59:03.376Z,18.17
2022-10-20T21:01:32.309Z,18.18
2022-10-20T21:04:03.347Z,18.16
2022-10-20T21:06:49.345Z,18.18
2022-10-20T21:09:21.043Z,18.15
2022-10-20T21:11:49.720Z,18.17
2022-10-20T21:14:19.231Z,18.25
2022-10-20T21:16:47.397Z,18.22
2022-10-20T21:19:15.501Z,18.15
2022-10-20T21:21:50.190Z,18.14
2022-10-20T21:24:19.106Z,18.09
2022-10-20T21:26:48.785Z,18.16
2022-10-20T21:29:18.568Z,18.11
2022-10-20T21:31:46.676Z,18.10
2022-10-20T21:34:14.840Z,18.07
2022-10-20T21:36:43.376Z,18.10
2022-10-20T21:39:16.561Z,18.11
2022-10-20T21:41:46.507Z,18.12
2022-10-20T21:44:15.762Z,18.02
2022-10-20T21:46:49.186Z,17.97
2022-10-20T21:49:20.108Z,18.03
2022-10-20T21:51:52.350Z,18.06
2022-10-20T21:54:24.664Z,18.06
2022-10-20T21:56:53.936Z,18.04
2022-10-20T21:59:25.052Z,18.02
2022-10-20T22:01:56.679Z,18.04
2022-10-20T22:04:27.307Z,18.05
2022-10-20T22:06:56.500Z,18.09
2022-10-20T22:09:24.701Z,18.09
2022-10-20T22:11:56.552Z,18.06
2022-10-20T22:14:25.121Z,18.02
2022-10-20T22:16:55.517Z,18.02
2022-10-20T22:19:25.632Z,18.01
2022-10-20T22:21:54.440Z,18.01
2022-10-20T22:24:23.817Z,17.93
2022-10-20T22:26:53.531Z,17.88
2022-10-20T22:29:23.840Z,17.86
2022-10-20T22:31:53.667Z,17.84
2022-10-20T22:34:22.069Z,17.88
2022-10-20T22:36:50.218Z,17.85
2022-10-20T22:39:18.423Z,17.84
2022-10-20T22:41:46.476Z,17.83
2022-10-20T22:44:14.527Z,17.83
2022-10-20T22:46:42.795Z,17.82
2022-10-20T22:49:14.010Z,17.86
2022-10-20T22:51:42.122Z,17.79
2022-10-20T22:54:10.422Z,17.79
2022-10-20T22:56:38.503Z,17.76
2022-10-20T22:59:06.673Z,17.74
2022-10-20T23:01:34.786Z,17.72
2022-10-20T23:04:02.842Z,17.72
2022-10-20T23:06:32.412Z,17.68
2022-10-20T23:09:00.542Z,17.66
2022-10-20T23:11:30.442Z,17.70
2022-10-20T23:13:58.780Z,17.63
2022-10-20T23:16:26.895Z,17.55
2022-10-20T23:18:55.072Z,17.60
2022-10-20T23:21:23.353Z,17.55
2022-10-20T23:23:52.858Z,17.52
2022-10-20T23:26:20.939Z,17.42
2022-10-20T23:28:49.552Z,17.47
2022-10-20T23:31:20.645Z,17.48
2022-10-20T23:33:51.337Z,17.42
2022-10-20T23:36:19.504Z,17.38
2022-10-20T23:38:47.720Z,17.40
2022-10-20T23:41:17.156Z,17.44
2022-10-20T23:43:45.340Z,17.46
2022-10-20T23:46:13.528Z,17.47
2022-10-20T23:48:41.945Z,17.48
2022-10-20T23:51:10.218Z,17.46
2022-10-20T23:53:38.439Z,17.42
2022-10-20T23:56:07.479Z,17.38
2022-10-20T23:58:37.250Z,17.38
